Darrouzett, TX

5:26 PM CDT on September 20, 2014 (GMT -0500)
Hemphill County | Change Station
CLOSE
Current Station
Airport
Location: Canadian,
Elevation: 2395 ft
Nearby Weather Stations

Elev 2395 ft 35.89 °N, 100.40 °W | Updated 11 minutes ago

Partly Cloudy
Partly Cloudy
88 °F
Feels Like 90 °F
N
9
Wind Variable Wind from SSE

Today
High -- | Low -- °F
--% Chance of Precip.
Yesterday
High -- | Low -- °F
Precip. -- in
7:27 AM 7:41 PM
Waning Crescent, 10% visible
Pressure 29.99 in
Visibility 10.0 miles
Clouds Mostly Cloudy 5000 ft
Heat Index 90 °F
Dew Point 66 °F
Humidity 48%
Rainfall 0.00 in
Snow Depth Not available.
UV 2 out of 12
Pollen 6.00 out of 12
Air Quality Not available.
Flu Activity Not available.
METAR KHHF 202215Z AUTO 16008KT 10SM BKN050 31/19 A2999 RMK AO2 T03100187

More Conditions Fewer Conditions

Pressure 29.99 in
Visibility 10.0 miles
Clouds Mostly Cloudy 5000 ft
Heat Index 90 °F
Dew Point 66 °F
Humidity 48%
Rainfall 0.00 in
Snow Depth Not available.
UV 2 out of 12
Pollen 6.00 out of 12
Air Quality Not available.
Flu Activity Not available.
METAR KHHF 202215Z AUTO 16008KT 10SM BKN050 31/19 A2999 RMK AO2 T03100187

More Conditions Fewer Conditions

10-Day Weather Forecast

Almanac

Astronomy

Sep. 20, 2014 Rise Set
Actual Time 7:27 AM CDT 7:41 PM CDT
Civil Twilight 7:01 AM CDT 8:06 PM CDT
Nautical Twilight 6:31 AM CDT 8:36 PM CDT
Astronomical Twilight 6:01 AM CDT 9:07 PM CDT
Moon 4:12 AM CDT 5:41 PM CDT
Length of Visible Light 13h 04m
Length of Day
12h 13m
Tomorrow will be 2m 18s shorter.
Waning Crescent, 10% of the Moon is Illuminated
Today
Waning Crescent
Sep 24
New
Oct 1
First Quarter
Oct 8
Full
Oct 15
Last Quarter

Today's Extremes

State Highs State Lows

Community

WunderPhotos

Upload Photos

1,754,967 photos uploaded!

WunderBlogs® & News

Nearby

Snow Depth

Station Depth Elevation
No new snow has been reported.

Earthquake Activity

City Distance Mag. Time & Date
Helena, Oklahoma 100 miles 2.8 4:01 PM CDT
2014-09-17
Minimum magnitude displayed is 2.5.

Coastal Water Temperatures

Place Temperature
No Stations Reporting

Nearby Weather Stations